Time;durP1;ratioP1;P1;durP2;ratioP2;P2;SDS_P1;SDS_P2;PMS_P1;PMS_P2;Temp;Humidity;BMP_temperature;BMP_pressure;BME280_temperature;BME280_humidity;BME280_pressure;Samples;Min_cycle;Max_cycle;Signal;HPM_P1;HPM_P2
2021/05/08 00:00:22;;;;;;;6.20;3.38;;;14.60;56.00;;;;;;6115196;29;20153;-80
2021/05/08 00:03:23;;;;;;;5.43;2.83;;;14.60;56.10;;;;;;6096135;29;20091;-80
2021/05/08 00:06:24;;;;;;;3.58;1.85;;;14.60;56.10;;;;;;6094464;29;20038;-80
2021/05/08 00:09:27;;;;;;;3.40;2.45;;;14.60;56.30;;;;;;6094524;29;20036;-80
2021/05/08 00:12:29;;;;;;;5.82;2.15;;;14.60;56.30;;;;;;6094610;29;20040;-80
2021/05/08 00:15:30;;;;;;;4.10;1.92;;;14.60;56.20;;;;;;6083913;29;20439;-83
2021/05/08 00:18:31;;;;;;;4.88;2.42;;;14.70;56.30;;;;;;6118337;29;20043;-79
2021/05/08 00:21:32;;;;;;;5.47;2.35;;;14.70;56.30;;;;;;6115407;29;20070;-79
2021/05/08 00:24:33;;;;;;;3.95;2.72;;;14.70;56.30;;;;;;6111176;29;20043;-79
2021/05/08 00:27:35;;;;;;;7.38;3.50;;;14.70;56.30;;;;;;6119539;29;20040;-80
2021/05/08 00:30:36;;;;;;;8.90;5.22;;;14.70;56.40;;;;;;6120954;29;20047;-80
2021/05/08 00:33:37;;;;;;;11.80;5.72;;;14.70;56.40;;;;;;6100395;29;20374;-79
2021/05/08 00:36:38;;;;;;;14.27;6.10;;;14.70;56.40;;;;;;6118550;29;20032;-79
2021/05/08 00:39:39;;;;;;;8.18;4.90;;;14.60;56.50;;;;;;6116111;29;20169;-80
2021/05/08 00:42:41;;;;;;;5.55;3.83;;;14.50;56.60;;;;;;6100114;29;20032;-80
2021/05/08 00:45:43;;;;;;;6.07;3.40;;;14.50;56.80;;;;;;6109741;29;20047;-79
2021/05/08 00:48:44;;;;;;;7.30;3.50;;;14.40;57.00;;;;;;6105492;29;20047;-79
2021/05/08 00:51:46;;;;;;;7.78;4.18;;;14.30;57.10;;;;;;6095784;29;20028;-80
2021/05/08 00:54:48;;;;;;;12.93;4.72;;;14.20;57.20;;;;;;6103004;29;20107;-80
2021/05/08 00:57:50;;;;;;;6.57;4.85;;;14.20;57.40;;;;;;6107207;29;20054;-80
2021/05/08 01:00:55;;;;;;;13.10;6.35;;;14.20;57.70;;;;;;6112483;29;20091;-80
2021/05/08 01:03:58;;;;;;;13.88;6.53;;;14.10;57.80;;;;;;6108736;29;20036;-81
2021/05/08 01:07:00;;;;;;;12.48;6.43;;;14.00;57.90;;;;;;6124017;29;20383;-80
2021/05/08 01:10:03;;;;;;;9.65;5.75;;;14.00;58.00;;;;;;6092831;29;20067;-79
2021/05/08 01:13:04;;;;;;;13.32;5.60;;;13.90;57.90;;;;;;6123898;29;20036;-79
2021/05/08 01:16:05;;;;;;;7.10;2.67;;;14.00;58.10;;;;;;6123821;29;20044;-79
2021/05/08 01:19:07;;;;;;;5.45;3.35;;;13.80;58.20;;;;;;6092776;29;20074;-79
2021/05/08 01:22:09;;;;;;;3.40;2.50;;;13.90;58.50;;;;;;6115250;29;20038;-79
2021/05/08 01:25:14;;;;;;;7.32;2.35;;;13.90;58.60;;;;;;6099284;29;20384;-79
2021/05/08 01:28:15;;;;;;;6.40;3.08;;;13.90;58.60;;;;;;6064506;29;20033;-78
2021/05/08 01:31:17;;;;;;;9.23;3.60;;;13.90;58.60;;;;;;6077748;29;20041;-79
2021/05/08 01:34:21;;;;;;;8.80;4.20;;;14.00;58.50;;;;;;6083448;29;20460;-80
2021/05/08 01:37:22;;;;;;;6.72;4.15;;;14.00;58.40;;;;;;6093838;29;20076;-79
2021/05/08 01:40:32;;;;;;;7.78;3.83;;;14.00;58.30;;;;;;6081196;29;20033;-79
2021/05/08 01:43:35;;;;;;;6.28;3.78;;;14.00;58.20;;;;;;6059874;29;20029;-78
2021/05/08 01:46:37;;;;;;;9.23;4.45;;;14.00;58.10;;;;;;6076482;29;20077;-79
2021/05/08 01:49:38;;;;;;;11.02;4.57;;;14.00;57.90;;;;;;6060684;29;20028;-80
2021/05/08 01:52:41;;;;;;;9.07;5.22;;;14.00;58.00;;;;;;6062395;29;20048;-79
2021/05/08 01:55:42;;;;;;;11.93;5.47;;;13.90;58.10;;;;;;6064716;29;20417;-81
2021/05/08 01:58:51;;;;;;;12.75;6.90;;;13.90;58.20;;;;;;6061151;29;20041;-80
2021/05/08 02:01:53;;;;;;;16.25;9.15;;;13.90;58.30;;;;;;6061029;29;20033;-79
2021/05/08 02:04:55;;;;;;;16.25;9.85;;;13.80;58.40;;;;;;6063092;29;20521;-78
2021/05/08 02:08:01;;;;;;;12.57;8.32;;;13.80;58.60;;;;;;6078345;29;20067;-80
2021/05/08 02:11:02;;;;;;;9.55;5.63;;;13.70;58.70;;;;;;6061163;29;20472;-80
2021/05/08 02:14:03;;;;;;;10.32;5.20;;;13.70;58.70;;;;;;6075603;29;20460;-81
2021/05/08 02:17:04;;;;;;;6.25;3.33;;;13.70;59.50;;;;;;6074504;29;20492;-80
2021/05/08 02:20:15;;;;;;;9.30;3.65;;;13.70;58.90;;;;;;6061209;29;20514;-80
2021/05/08 02:23:18;;;;;;;2.92;1.98;;;13.60;58.90;;;;;;6069594;29;20083;-79
2021/05/08 02:26:23;;;;;;;2.95;1.92;;;13.60;59.00;;;;;;6105971;29;20024;-79
2021/05/08 02:29:25;;;;;;;7.35;2.80;;;13.50;59.00;;;;;;6106833;29;20479;-79
2021/05/08 02:32:28;;;;;;;8.40;4.03;;;13.50;59.00;;;;;;6090954;29;20171;-79
2021/05/08 02:35:32;;;;;;;8.07;5.18;;;13.50;59.00;;;;;;6113655;29;20036;-79
2021/05/08 02:38:34;;;;;;;7.50;4.72;;;13.50;59.10;;;;;;6092889;29;20048;-80
2021/05/08 02:41:37;;;;;;;7.43;4.80;;;13.50;59.10;;;;;;6091210;29;20091;-79
2021/05/08 02:44:38;;;;;;;8.60;4.95;;;13.40;59.10;;;;;;6107586;29;20046;-79
2021/05/08 02:47:42;;;;;;;6.72;3.78;;;13.50;59.20;;;;;;6106402;29;20467;-79
2021/05/08 02:50:45;;;;;;;7.05;2.80;;;13.40;59.10;;;;;;6122097;29;20376;-79
2021/05/08 02:53:47;;;;;;;4.65;2.00;;;13.40;59.00;;;;;;6090736;29;20380;-80
2021/05/08 02:56:48;;;;;;;4.78;1.98;;;13.40;58.90;;;;;;6107869;29;20141;-80
2021/05/08 02:59:49;;;;;;;4.63;2.50;;;13.30;58.90;;;;;;6090843;29;20047;-79
2021/05/08 03:02:50;;;;;;;7.35;2.65;;;13.40;59.00;;;;;;6109384;29;20035;-79
2021/05/08 03:05:52;;;;;;;2.65;1.80;;;13.40;59.00;;;;;;6117009;29;20080;-79
2021/05/08 03:08:58;;;;;;;5.82;2.40;;;13.30;59.00;;;;;;6126054;29;20040;-80
2021/05/08 03:12:01;;;;;;;6.30;2.55;;;13.30;59.10;;;;;;6091450;29;20466;-80
2021/05/08 03:15:05;;;;;;;3.22;1.55;;;13.30;59.20;;;;;;6107553;29;20059;-81
2021/05/08 03:18:06;;;;;;;2.38;1.48;;;13.20;59.30;;;;;;6129282;29;20055;-80
2021/05/08 03:21:07;;;;;;;2.55;1.40;;;13.20;59.30;;;;;;6111228;29;20028;-79
2021/05/08 03:24:09;;;;;;;3.95;1.33;;;13.20;59.40;;;;;;6126091;29;20135;-80
2021/05/08 03:27:10;;;;;;;1.90;1.42;;;13.20;59.40;;;;;;6093619;29;20043;-79
2021/05/08 03:30:14;;;;;;;5.65;1.35;;;13.10;59.50;;;;;;6102298;29;20443;-79
2021/05/08 03:33:32;;;;;;;3.05;1.42;;;13.10;59.70;;;;;;6102580;29;20112;-79
2021/05/08 03:36:34;;;;;;;2.90;1.15;;;13.10;59.80;;;;;;6087625;29;20467;-79
2021/05/08 03:39:39;;;;;;;2.05;1.20;;;13.10;59.80;;;;;;6087197;29;20119;-79
2021/05/08 03:42:40;;;;;;;1.75;1.20;;;13.10;59.80;;;;;;6087592;29;20024;-78
2021/05/08 03:45:41;;;;;;;2.13;1.35;;;13.00;59.90;;;;;;6095377;29;20360;-79
2021/05/08 03:48:42;;;;;;;4.93;1.80;;;13.00;60.00;;;;;;6089484;29;20037;-79
2021/05/08 03:51:44;;;;;;;4.72;1.80;;;13.00;60.00;;;;;;6103105;29;20032;-78
2021/05/08 03:54:47;;;;;;;5.32;1.83;;;13.00;60.10;;;;;;6094198;29;20585;-78
2021/05/08 03:57:48;;;;;;;3.13;1.73;;;13.00;60.20;;;;;;6098689;29;20456;-79
2021/05/08 04:00:50;;;;;;;3.30;1.90;;;13.00;60.20;;;;;;6099949;29;20063;-79
2021/05/08 04:03:51;;;;;;;4.70;2.08;;;13.00;60.10;;;;;;6086562;29;20515;-79
2021/05/08 04:06:53;;;;;;;3.95;1.85;;;13.10;60.00;;;;;;6094065;29;20188;-79
2021/05/08 04:09:56;;;;;;;3.90;1.42;;;13.10;59.90;;;;;;6108393;29;20036;-79
2021/05/08 04:12:57;;;;;;;2.28;1.67;;;13.20;59.90;;;;;;6093506;29;20061;-80
2021/05/08 04:15:58;;;;;;;1.73;1.23;;;13.20;59.80;;;;;;6092832;29;20032;-79
2021/05/08 04:19:00;;;;;;;3.05;1.83;;;13.20;59.90;;;;;;6089286;29;20033;-79
2021/05/08 04:22:01;;;;;;;2.08;1.42;;;13.20;59.90;;;;;;6101523;29;20031;-79
2021/05/08 04:25:03;;;;;;;8.25;1.98;;;13.20;59.90;;;;;;6085466;29;20051;-80
2021/05/08 04:28:13;;;;;;;2.92;1.60;;;13.20;59.90;;;;;;6101230;29;20478;-79
2021/05/08 04:31:14;;;;;;;3.83;1.65;;;13.20;59.80;;;;;;6086659;29;20096;-79
2021/05/08 04:34:15;;;;;;;3.17;1.90;;;13.30;59.70;;;;;;6085549;29;20475;-79
2021/05/08 04:37:16;;;;;;;6.22;1.58;;;13.30;59.60;;;;;;6087502;29;20067;-79
2021/05/08 04:40:17;;;;;;;2.97;1.20;;;13.40;59.40;;;;;;6101558;29;20379;-79
2021/05/08 04:43:20;;;;;;;3.83;1.65;;;13.50;59.30;;;;;;6086411;29;20025;-78
2021/05/08 04:46:24;;;;;;;2.17;1.30;;;13.50;59.20;;;;;;6107629;29;20408;-79
2021/05/08 04:49:25;;;;;;;3.47;1.70;;;13.50;59.30;;;;;;6095331;29;20345;-80
2021/05/08 04:52:27;;;;;;;3.35;2.28;;;13.40;59.30;;;;;;6081001;29;20046;-80
2021/05/08 04:55:28;;;;;;;3.22;2.00;;;13.40;59.30;;;;;;6094073;29;20048;-78
2021/05/08 04:58:30;;;;;;;4.25;2.00;;;13.40;59.40;;;;;;6100811;29;20368;-79
2021/05/08 05:01:31;;;;;;;6.97;2.55;;;13.40;59.40;;;;;;6100999;29;20120;-78
2021/05/08 05:04:32;;;;;;;4.05;2.47;;;13.40;59.40;;;;;;6100867;29;20033;-80
2021/05/08 05:07:34;;;;;;;6.50;2.05;;;13.30;59.60;;;;;;6110418;29;20131;-79
2021/05/08 05:10:35;;;;;;;2.55;1.80;;;13.20;59.70;;;;;;6077412;29;20028;-80
2021/05/08 05:13:38;;;;;;;2.38;1.85;;;13.20;59.70;;;;;;6100830;29;20507;-78
2021/05/08 05:16:39;;;;;;;5.63;1.90;;;13.20;59.70;;;;;;6101879;29;20033;-79
2021/05/08 05:19:40;;;;;;;3.85;2.00;;;13.20;59.80;;;;;;6107952;29;20345;-79
2021/05/08 05:22:41;;;;;;;3.03;1.52;;;13.20;60.70;;;;;;6082437;29;20035;-82
2021/05/08 05:25:42;;;;;;;1.85;1.20;;;13.10;59.90;;;;;;6117094;29;20044;-81
2021/05/08 05:28:43;;;;;;;4.93;1.50;;;13.10;59.90;;;;;;6118986;29;20383;-78
2021/05/08 05:31:47;;;;;;;2.42;1.55;;;13.00;59.90;;;;;;6108630;29;20036;-78
2021/05/08 05:34:49;;;;;;;1.52;1.30;;;13.00;60.00;;;;;;6109062;29;20063;-78
2021/05/08 05:37:57;;;;;;;3.17;1.40;;;13.00;60.00;;;;;;6124340;29;20561;-79
2021/05/08 05:40:59;;;;;;;2.90;0.95;;;13.00;60.00;;;;;;6099220;29;20027;-78
2021/05/08 05:44:03;;;;;;;5.57;1.63;;;13.10;60.00;;;;;;6111478;29;20229;-80
2021/05/08 05:47:07;;;;;;;2.35;1.50;;;13.10;59.80;;;;;;6105526;29;20036;-78
2021/05/08 05:50:08;;;;;;;2.78;1.52;;;13.20;59.70;;;;;;6109996;29;20534;-77
2021/05/08 05:53:10;;;;;;;3.45;1.67;;;13.20;59.70;;;;;;6106654;29;20451;-78
2021/05/08 05:56:11;;;;;;;3.08;1.90;;;13.20;59.50;;;;;;6084428;29;20027;-78
2021/05/08 05:59:13;;;;;;;4.47;1.95;;;13.30;59.40;;;;;;6097990;29;20356;-77
2021/05/08 06:02:15;;;;;;;8.50;1.52;;;13.30;59.20;;;;;;6102937;29;20042;-79
2021/05/08 06:05:16;;;;;;;3.08;1.40;;;13.40;59.10;;;;;;6138146;29;20459;-80
2021/05/08 06:08:17;;;;;;;1.38;1.27;;;13.40;59.00;;;;;;6104021;29;20063;-81
2021/05/08 06:11:19;;;;;;;2.20;1.20;;;13.40;58.80;;;;;;6101628;29;20403;-79
2021/05/08 06:14:20;;;;;;;1.10;1.00;;;13.40;58.70;;;;;;6122404;29;20027;-80
2021/05/08 06:17:21;;;;;;;5.85;1.52;;;13.50;58.70;;;;;;6124113;29;20035;-80
2021/05/08 06:20:22;;;;;;;5.10;1.40;;;13.60;58.60;;;;;;6100917;29;20044;-80
2021/05/08 06:23:23;;;;;;;2.85;1.50;;;13.70;58.50;;;;;;6107744;29;20059;-79
2021/05/08 06:26:24;;;;;;;2.63;1.52;;;13.90;58.30;;;;;;6122412;29;20030;-79
2021/05/08 06:29:26;;;;;;;2.00;1.20;;;14.00;58.20;;;;;;6111831;29;20032;-80
2021/05/08 06:32:27;;;;;;;1.85;1.50;;;14.10;57.90;;;;;;6091506;29;20039;-78
2021/05/08 06:35:28;;;;;;;2.75;1.30;;;14.20;57.70;;;;;;6104026;29;20059;-80
2021/05/08 06:38:29;;;;;;;2.42;1.35;;;14.40;57.50;;;;;;6091316;29;20036;-80
2021/05/08 06:41:30;;;;;;;6.05;1.67;;;14.50;57.20;;;;;;6090784;29;20035;-79
2021/05/08 06:44:31;;;;;;;1.50;1.20;;;14.80;57.10;;;;;;6101067;29;20039;-80
2021/05/08 06:47:32;;;;;;;4.13;1.58;;;15.00;56.50;;;;;;6095116;29;20040;-80
2021/05/08 06:50:37;;;;;;;2.97;1.60;;;15.20;56.20;;;;;;6105157;29;20023;-81
2021/05/08 06:53:38;;;;;;;2.03;1.17;;;15.30;55.70;;;;;;6116791;29;20029;-81
2021/05/08 06:56:40;;;;;;;2.65;1.20;;;15.50;55.30;;;;;;6119144;29;20024;-81
2021/05/08 06:59:42;;;;;;;1.25;1.00;;;15.60;55.00;;;;;;6122504;29;20035;-85
2021/05/08 07:02:43;;;;;;;1.80;1.10;;;15.50;54.80;;;;;;6092210;29;20029;-80
2021/05/08 07:05:44;;;;;;;3.97;1.23;;;15.60;54.90;;;;;;6099537;29;20023;-82
2021/05/08 07:08:45;;;;;;;1.73;1.05;;;15.70;54.80;;;;;;6109475;29;20170;-80
2021/05/08 07:11:46;;;;;;;3.30;1.10;;;15.80;54.30;;;;;;6118519;29;20345;-81
2021/05/08 07:14:47;;;;;;;2.22;1.38;;;15.90;53.90;;;;;;6120474;29;20044;-81
2021/05/08 07:18:03;;;;;;;2.47;1.63;;;16.00;53.70;;;;;;6115520;29;20032;-81
2021/05/08 07:21:04;;;;;;;8.23;1.70;;;16.10;53.50;;;;;;6122511;29;20016;-81
2021/05/08 07:24:06;;;;;;;3.72;1.70;;;16.20;53.10;;;;;;6084912;29;20046;-79
2021/05/08 07:27:07;;;;;;;3.33;1.55;;;16.30;52.60;;;;;;6116276;29;20473;-80
2021/05/08 07:30:09;;;;;;;3.03;1.15;;;16.30;52.50;;;;;;6117802;29;20032;-79
2021/05/08 07:33:11;;;;;;;1.50;0.98;;;16.40;52.40;;;;;;6115737;29;20028;-81
2021/05/08 07:36:13;;;;;;;1.55;1.20;;;16.50;52.40;;;;;;6103880;29;20040;-79
2021/05/08 07:39:14;;;;;;;1.80;1.00;;;16.60;52.00;;;;;;6088205;29;20127;-80
2021/05/08 07:42:16;;;;;;;6.82;1.70;;;16.70;51.70;;;;;;6102236;29;20498;-80
2021/05/08 07:45:24;;;;;;;1.30;1.08;;;16.80;51.50;;;;;;6082966;29;20039;-81
2021/05/08 07:48:27;;;;;;;2.97;1.10;;;16.90;51.50;;;;;;6068515;29;20032;-81
2021/05/08 07:51:28;;;;;;;2.15;1.10;;;17.00;51.20;;;;;;6085234;29;20466;-79
2021/05/08 07:54:30;;;;;;;3.30;1.77;;;17.10;50.70;;;;;;6095342;29;20036;-86
2021/05/08 07:57:31;;;;;;;3.72;1.33;;;17.30;50.50;;;;;;6082796;29;20054;-78
2021/05/08 08:00:33;;;;;;;2.65;1.00;;;17.40;50.40;;;;;;6104457;29;20035;-79
2021/05/08 08:03:34;;;;;;;1.95;1.00;;;17.60;50.10;;;;;;6104191;29;20028;-79
2021/05/08 08:06:35;;;;;;;4.80;0.90;;;17.70;49.60;;;;;;6092613;29;20031;-80
2021/05/08 08:09:36;;;;;;;2.47;1.00;;;17.80;49.30;;;;;;6107271;29;20027;-80
2021/05/08 08:12:38;;;;;;;2.30;1.20;;;17.90;49.10;;;;;;6105592;29;20142;-80
2021/05/08 08:15:39;;;;;;;1.80;1.00;;;17.90;49.20;;;;;;6089971;29;20047;-79
2021/05/08 08:18:40;;;;;;;4.45;0.90;;;18.00;48.90;;;;;;6127984;29;20043;-78
2021/05/08 08:21:41;;;;;;;2.17;1.08;;;18.00;48.50;;;;;;6082149;29;20032;-79
2021/05/08 08:24:43;;;;;;;2.25;1.00;;;18.10;48.40;;;;;;6089899;29;20040;-78
2021/05/08 08:27:44;;;;;;;3.33;1.50;;;18.20;48.40;;;;;;6090605;29;20028;-78
2021/05/08 08:30:46;;;;;;;7.28;1.35;;;18.30;47.80;;;;;;6108336;29;20024;-79
2021/05/08 08:33:47;;;;;;;7.78;1.10;;;18.40;47.20;;;;;;6091012;29;20087;-80
2021/05/08 08:36:48;;;;;;;3.45;1.00;;;18.60;46.60;;;;;;6093233;29;20536;-81
2021/05/08 08:39:51;;;;;;;4.82;1.35;;;18.70;46.10;;;;;;6110014;29;20029;-80
2021/05/08 08:42:53;;;;;;;1.20;0.90;;;18.60;45.50;;;;;;6101512;29;20036;-80
2021/05/08 08:45:55;;;;;;;2.08;0.80;;;18.80;45.70;;;;;;6097251;29;20073;-80
2021/05/08 08:48:58;;;;;;;1.98;0.65;;;18.90;45.30;;;;;;6104093;29;20036;-83
2021/05/08 08:51:59;;;;;;;2.15;0.70;;;18.90;45.30;;;;;;6092718;29;20095;-81
2021/05/08 08:55:01;;;;;;;1.45;0.63;;;18.90;45.40;;;;;;6113895;29;20023;-82
2021/05/08 08:58:05;;;;;;;3.95;0.85;;;19.00;45.10;;;;;;6126163;29;20024;-83
2021/05/08 09:01:06;;;;;;;2.50;1.35;;;19.20;45.10;;;;;;6100892;29;20115;-83
2021/05/08 09:04:09;;;;;;;3.60;2.22;;;19.30;44.60;;;;;;6085289;29;20047;-84
2021/05/08 09:07:12;;;;;;;2.85;0.93;;;19.40;44.00;;;;;;6130053;29;20040;-83
2021/05/08 09:10:24;;;;;;;1.63;1.00;;;19.40;43.20;;;;;;6109838;29;20111;-83
2021/05/08 09:13:25;;;;;;;2.38;1.00;;;19.30;42.80;;;;;;6113791;29;20894;-82
2021/05/08 09:16:33;;;;;;;1.05;0.65;;;19.30;42.70;;;;;;6091751;29;20028;-85
2021/05/08 09:19:55;;;;;;;0.82;0.70;;;19.30;42.90;;;;;;6113596;29;20028;-84
2021/05/08 09:22:59;;;;;;;5.22;0.85;;;19.30;43.20;;;;;;6089862;29;20036;-85
2021/05/08 09:26:11;;;;;;;1.42;0.90;;;19.40;43.40;;;;;;6100784;29;20028;-86
2021/05/08 09:29:18;;;;;;;1.65;0.80;;;19.50;43.20;;;;;;6092446;29;20336;-87
2021/05/08 09:32:19;;;;;;;2.53;0.77;;;19.50;43.20;;;;;;6105831;29;20040;-86
2021/05/08 09:35:35;;;;;;;1.05;0.70;;;19.60;43.40;;;;;;6112593;29;20055;-87
2021/05/08 09:38:41;;;;;;;3.25;1.08;;;19.70;43.60;;;;;;6116008;29;20040;-87
2021/05/08 09:41:46;;;;;;;3.65;0.93;;;19.80;43.50;;;;;;6101800;29;20035;-86
2021/05/08 09:44:57;;;;;;;10.93;5.22;;;19.90;43.50;;;;;;6112185;29;20081;-84
2021/05/08 09:48:15;;;;;;;13.23;6.05;;;20.00;43.60;;;;;;6099835;29;20123;-87
2021/05/08 09:51:28;;;;;;;4.70;2.35;;;20.20;43.20;;;;;;6100465;29;20059;-83
2021/05/08 09:54:30;;;;;;;2.88;1.30;;;20.30;43.10;;;;;;6106975;29;20367;-77
2021/05/08 09:57:31;;;;;;;2.35;0.95;;;20.40;43.00;;;;;;6112463;29;20283;-80
2021/05/08 10:00:39;;;;;;;2.90;1.63;;;20.60;42.70;;;;;;6089176;29;20080;-80
2021/05/08 10:03:40;;;;;;;3.17;1.90;;;20.70;42.20;;;;;;6101477;29;20036;-79
2021/05/08 10:07:10;;;;;;;6.15;3.17;;;20.80;41.50;;;;;;6100140;29;20035;-80
2021/05/08 10:10:11;;;;;;;7.00;1.00;;;20.90;40.40;;;;;;6106259;29;20027;-78
2021/05/08 10:13:12;;;;;;;3.65;1.17;;;21.00;39.40;;;;;;6113293;29;20097;-78
2021/05/08 10:16:14;;;;;;;2.60;1.20;;;21.00;39.50;;;;;;6104600;29;20068;-78
2021/05/08 10:19:16;;;;;;;1.92;1.08;;;21.10;40.00;;;;;;6100912;29;20032;-79
2021/05/08 10:22:18;;;;;;;4.47;1.15;;;21.30;40.10;;;;;;6103065;29;20356;-81
2021/05/08 10:25:20;;;;;;;9.15;0.85;;;21.50;39.90;;;;;;6107562;29;20036;-82
2021/05/08 10:28:22;;;;;;;1.13;0.70;;;21.70;38.20;;;;;;6098967;29;20043;-83
2021/05/08 10:31:24;;;;;;;1.02;0.50;;;21.80;37.40;;;;;;6092381;29;20088;-82
2021/05/08 10:34:48;;;;;;;2.08;0.60;;;21.90;37.00;;;;;;6088616;29;20493;-83
2021/05/08 10:38:43;;;;;;;2.28;0.93;;;22.20;36.90;;;;;;6107538;29;20040;-85
2021/05/08 10:41:53;;;;;;;2.30;0.68;;;22.50;36.30;;;;;;6119389;29;20518;-85
2021/05/08 10:44:56;;;;;;;3.40;0.73;;;22.70;35.00;;;;;;6096740;29;20028;-82
2021/05/08 10:48:02;;;;;;;0.63;0.55;;;22.90;35.00;;;;;;6107354;29;20036;-85
2021/05/08 10:51:04;;;;;;;1.52;0.70;;;23.10;35.40;;;;;;6132695;29;20028;-84
2021/05/08 10:54:05;;;;;;;2.40;0.40;;;23.40;33.40;;;;;;6076809;29;20372;-83
2021/05/08 10:57:19;;;;;;;4.30;1.02;;;23.70;32.90;;;;;;6113683;29;20036;-83
2021/05/08 11:00:22;;;;;;;0.43;0.43;;;24.00;32.80;;;;;;6103748;29;20043;-85
2021/05/08 11:03:33;;;;;;;2.55;0.82;;;24.30;32.30;;;;;;6114128;29;20071;-84
2021/05/08 11:06:34;;;;;;;4.13;0.80;;;24.50;32.40;;;;;;6103211;29;20024;-84
2021/05/08 11:09:38;;;;;;;2.60;0.80;;;25.10;32.40;;;;;;6096418;29;20051;-83
2021/05/08 11:13:07;;;;;;;3.42;1.27;;;25.80;31.10;;;;;;6097242;29;20037;-83
2021/05/08 11:16:12;;;;;;;1.50;0.73;;;26.70;29.90;;;;;;6080069;29;20024;-80
2021/05/08 11:19:24;;;;;;;1.05;0.70;;;27.50;28.80;;;;;;6092695;29;20032;-81
2021/05/08 11:22:32;;;;;;;3.13;0.80;;;28.30;28.30;;;;;;6084246;29;20062;-85
2021/05/08 11:25:34;;;;;;;1.60;0.90;;;29.00;27.60;;;;;;6084552;29;20377;-82
2021/05/08 11:28:35;;;;;;;3.33;0.82;;;29.20;26.70;;;;;;6100273;29;20032;-84
2021/05/08 11:31:45;;;;;;;0.90;0.70;;;29.40;26.70;;;;;;6103404;29;20029;-85
2021/05/08 11:34:48;;;;;;;2.22;1.10;;;29.90;26.70;;;;;;6080649;29;20040;-86
2021/05/08 11:37:49;;;;;;;1.42;0.70;;;30.10;26.20;;;;;;6083865;29;20036;-87
2021/05/08 11:40:50;;;;;;;1.75;0.93;;;30.50;25.70;;;;;;6094701;29;20036;-89
2021/05/08 11:43:53;;;;;;;4.07;0.85;;;30.50;25.40;;;;;;6080465;29;20039;-89
2021/05/08 11:47:35;;;;;;;2.13;0.77;;;30.80;25.40;;;;;;6107867;29;20033;-88
2021/05/08 11:50:37;;;;;;;1.70;0.73;;;31.00;25.20;;;;;;6100848;29;20028;-87
2021/05/08 11:53:38;;;;;;;0.68;0.60;;;31.00;24.90;;;;;;6091548;29;20043;-86
2021/05/08 11:56:39;;;;;;;2.88;1.08;;;31.20;24.90;;;;;;6088748;29;20096;-85
2021/05/08 11:59:42;;;;;;;2.28;0.90;;;31.40;24.80;;;;;;6101963;29;20064;-87
2021/05/08 12:02:46;;;;;;;1.85;0.80;;;31.60;24.20;;;;;;6077653;29;20360;-87
2021/05/08 12:05:48;;;;;;;0.90;0.68;;;31.80;24.00;;;;;;6103224;29;20036;-88
2021/05/08 12:08:50;;;;;;;4.78;1.00;;;31.90;23.60;;;;;;6101888;29;20037;-88
2021/05/08 12:12:06;;;;;;;3.47;0.80;;;32.00;23.80;;;;;;6101921;29;20525;-87
2021/05/08 12:15:08;;;;;;;1.10;0.60;;;31.90;23.40;;;;;;6102602;29;20028;-86
2021/05/08 12:18:20;;;;;;;1.42;0.75;;;32.30;23.60;;;;;;6072806;29;20037;-87
2021/05/08 12:21:23;;;;;;;1.50;0.90;;;32.50;23.20;;;;;;6073383;29;20096;-88
2021/05/08 12:24:28;;;;;;;1.05;0.77;;;33.00;23.00;;;;;;6098722;29;20041;-91
2021/05/08 12:28:09;;;;;;;1.35;0.80;;;33.40;22.50;;;;;;6080346;29;20028;-90
2021/05/08 12:31:32;;;;;;;5.43;2.05;;;33.80;22.30;;;;;;6091612;29;20037;-87
2021/05/08 12:34:36;;;;;;;4.40;1.27;;;34.30;21.70;;;;;;6100579;29;20055;-86
2021/05/08 12:37:41;;;;;;;1.92;1.08;;;34.50;21.50;;;;;;6103970;29;20032;-86
2021/05/08 12:40:53;;;;;;;1.77;1.00;;;34.70;21.40;;;;;;6071010;29;20100;-86
2021/05/08 12:44:14;;;;;;;1.17;0.77;;;35.10;21.10;;;;;;6096763;29;20043;-87
2021/05/08 12:47:49;;;;;;;2.53;0.90;;;35.60;20.90;;;;;;6073003;29;20474;-86
2021/05/08 12:50:51;;;;;;;0.73;0.70;;;36.20;20.50;;;;;;6084428;29;20037;-86
2021/05/08 12:54:17;;;;;;;2.40;0.93;;;36.40;20.10;;;;;;6087650;29;20047;-85
2021/05/08 12:57:18;;;;;;;1.15;0.70;;;36.20;20.20;;;;;;6098264;29;20036;-85
2021/05/08 13:00:21;;;;;;;4.15;1.25;;;36.60;20.00;;;;;;6086939;29;20047;-83
2021/05/08 13:03:28;;;;;;;5.13;1.35;;;37.30;19.70;;;;;;6084666;29;20041;-83
2021/05/08 13:06:29;;;;;;;3.37;1.27;;;38.00;19.10;;;;;;6085498;29;20036;-83
2021/05/08 13:09:30;;;;;;;5.30;0.90;;;38.80;18.60;;;;;;6071613;29;20032;-82
2021/05/08 13:12:32;;;;;;;12.20;0.70;;;39.40;18.20;;;;;;6084432;29;20029;-81
2021/05/08 13:15:35;;;;;;;1.30;0.70;;;39.60;17.90;;;;;;6086526;29;20056;-82
2021/05/08 13:18:37;;;;;;;1.48;0.80;;;40.20;17.80;;;;;;6102148;29;20032;-81
2021/05/08 13:21:39;;;;;;;1.58;0.77;;;41.10;17.20;;;;;;6095463;29;20116;-83
2021/05/08 13:24:41;;;;;;;2.72;0.85;;;42.10;16.80;;;;;;6100387;29;20040;-83
2021/05/08 13:27:44;;;;;;;3.75;0.95;;;42.80;16.20;;;;;;6101303;29;20032;-83
2021/05/08 13:30:47;;;;;;;0.80;0.60;;;43.60;16.00;;;;;;6096498;29;20024;-85
2021/05/08 13:33:50;;;;;;;0.80;0.55;;;43.90;15.50;;;;;;6072599;29;20127;-82
2021/05/08 13:36:51;;;;;;;1.10;0.77;;;44.30;15.30;;;;;;6070992;29;20119;-82
2021/05/08 13:39:52;;;;;;;0.60;0.60;;;44.50;15.10;;;;;;6083885;29;20135;-83
2021/05/08 13:42:54;;;;;;;2.72;0.70;;;44.70;15.00;;;;;;6085688;29;20029;-81
2021/05/08 13:45:56;;;;;;;1.73;0.57;;;45.10;14.80;;;;;;6084221;29;20028;-84
2021/05/08 13:48:57;;;;;;;5.15;0.60;;;45.40;15.00;;;;;;6078958;29;20033;-83
2021/05/08 13:51:58;;;;;;;0.47;0.38;;;45.80;14.30;;;;;;6080203;29;20115;-85
2021/05/08 13:55:00;;;;;;;3.05;0.63;;;46.20;14.10;;;;;;6071214;29;20111;-79
2021/05/08 13:58:03;;;;;;;3.10;0.60;;;46.60;13.90;;;;;;6065784;29;20080;-81
2021/05/08 14:01:10;;;;;;;5.70;0.70;;;46.70;13.70;;;;;;6079762;29;20028;-81
2021/05/08 14:04:12;;;;;;;1.63;0.47;;;46.70;13.60;;;;;;6071565;29;20080;-81
2021/05/08 14:07:13;;;;;;;0.40;0.40;;;46.80;13.40;;;;;;6092454;29;20033;-88
2021/05/08 14:10:15;;;;;;;1.17;0.40;;;46.80;13.40;;;;;;6091224;29;20063;-87
2021/05/08 14:13:16;;;;;;;1.65;0.50;;;46.80;13.30;;;;;;6096664;29;20104;-80
2021/05/08 14:16:17;;;;;;;0.65;0.60;;;46.80;13.30;;;;;;6090404;29;20035;-83
2021/05/08 14:19:18;;;;;;;0.73;0.40;;;46.90;13.30;;;;;;6106874;29;20036;-82
2021/05/08 14:22:20;;;;;;;1.10;0.63;;;46.80;13.20;;;;;;6096754;29;20065;-82
2021/05/08 14:25:23;;;;;;;0.50;0.50;;;46.40;13.20;;;;;;6097648;29;20367;-82
2021/05/08 14:28:27;;;;;;;2.15;1.27;;;46.40;13.40;;;;;;6090198;29;20490;-82
2021/05/08 14:31:29;;;;;;;0.57;0.50;;;46.40;13.30;;;;;;6087225;29;20460;-82
2021/05/08 14:34:30;;;;;;;2.08;0.70;;;46.40;13.20;;;;;;6076568;29;20123;-82
2021/05/08 14:37:31;;;;;;;2.33;0.60;;;46.30;13.20;;;;;;6102130;29;20032;-83
2021/05/08 14:40:32;;;;;;;2.25;0.60;;;46.30;13.20;;;;;;6103572;29;20372;-82
2021/05/08 14:43:33;;;;;;;2.45;1.02;;;45.60;13.40;;;;;;6097069;29;20027;-82
2021/05/08 14:46:38;;;;;;;0.95;0.57;;;44.10;14.20;;;;;;6095706;29;20032;-80
2021/05/08 14:49:43;;;;;;;3.20;1.02;;;42.50;15.10;;;;;;6109294;29;20047;-82
2021/05/08 14:52:45;;;;;;;3.28;0.73;;;40.90;16.00;;;;;;6078012;29;20035;-82
2021/05/08 14:55:49;;;;;;;1.48;0.57;;;39.40;16.90;;;;;;6109285;29;20032;-83
2021/05/08 14:58:54;;;;;;;1.45;0.63;;;38.00;18.30;;;;;;6093670;29;20036;-83
2021/05/08 15:01:57;;;;;;;1.17;0.60;;;36.80;18.60;;;;;;6100238;29;20036;-83
2021/05/08 15:04:58;;;;;;;1.95;0.60;;;35.70;19.40;;;;;;6101884;29;20410;-82
2021/05/08 15:08:00;;;;;;;2.13;0.80;;;34.80;20.10;;;;;;6069501;29;20107;-83
2021/05/08 15:11:01;;;;;;;3.35;0.77;;;34.10;20.70;;;;;;6068463;29;20036;-82
2021/05/08 15:14:02;;;;;;;0.85;0.60;;;33.50;21.30;;;;;;6074566;29;20028;-82
2021/05/08 15:17:04;;;;;;;2.63;0.90;;;33.00;21.80;;;;;;6087336;29;20036;-83
2021/05/08 15:20:05;;;;;;;2.65;0.70;;;32.60;22.20;;;;;;6079215;29;20047;-83
2021/05/08 15:23:07;;;;;;;0.77;0.70;;;32.70;22.50;;;;;;6094723;29;20064;-82
2021/05/08 15:26:08;;;;;;;4.32;1.00;;;34.00;21.70;;;;;;6090503;29;20067;-82
2021/05/08 15:29:10;;;;;;;1.40;0.77;;;35.80;20.60;;;;;;6106675;29;20044;-82
2021/05/08 15:32:11;;;;;;;2.50;0.65;;;37.70;19.40;;;;;;6112503;29;20028;-81
2021/05/08 15:35:12;;;;;;;2.17;0.77;;;39.30;18.50;;;;;;6120419;29;20111;-82
2021/05/08 15:38:13;;;;;;;5.57;0.82;;;40.40;17.70;;;;;;6110604;29;20096;-85
2021/05/08 15:41:14;;;;;;;3.78;0.70;;;41.50;17.10;;;;;;6102245;29;20479;-83
2021/05/08 15:44:15;;;;;;;1.45;1.00;;;42.00;16.60;;;;;;6097715;29;20475;-82
2021/05/08 15:47:16;;;;;;;4.05;0.70;;;42.50;16.30;;;;;;6087367;29;20444;-82
2021/05/08 15:50:18;;;;;;;5.75;0.95;;;43.10;16.00;;;;;;6109996;29;20032;-83
2021/05/08 15:53:20;;;;;;;1.40;0.60;;;43.60;15.70;;;;;;6104493;29;20088;-82